createdAt,value
2022-10-17T00:01:21.730Z,101298.87
2022-10-17T00:03:53.412Z,101297.36
2022-10-17T00:06:25.132Z,101298.57
2022-10-17T00:08:56.827Z,101309.39
2022-10-17T00:11:28.679Z,101322.13
2022-10-17T00:14:00.510Z,101330.14
2022-10-17T00:16:36.846Z,101334.71
2022-10-17T00:19:10.058Z,101323.62
2022-10-17T00:21:42.264Z,101312.63
2022-10-17T00:24:13.920Z,101310.79
2022-10-17T00:26:45.947Z,101319.23
2022-10-17T00:29:17.718Z,101315.25
2022-10-17T00:31:55.057Z,101313.20
2022-10-17T00:34:30.249Z,101322.42
2022-10-17T00:37:02.099Z,101324.44
2022-10-17T00:39:33.657Z,101320.02
2022-10-17T00:42:05.502Z,101314.50
2022-10-17T00:45:00.906Z,101315.30
2022-10-17T00:47:34.471Z,101314.04
2022-10-17T00:50:09.426Z,101311.20
2022-10-17T00:52:42.459Z,101315.20
2022-10-17T00:55:18.546Z,101308.28
2022-10-17T00:57:50.760Z,101306.66
2022-10-17T01:00:24.960Z,101307.13
2022-10-17T01:02:55.104Z,101302.75
2022-10-17T01:05:27.136Z,101305.40
2022-10-17T01:08:00.646Z,101311.87
2022-10-17T01:10:38.833Z,101315.36
2022-10-17T01:13:16.224Z,101313.96
2022-10-17T01:16:00.270Z,101323.74
2022-10-17T01:18:46.385Z,101337.79
2022-10-17T01:21:39.372Z,101338.94
2022-10-17T01:24:30.056Z,101341.67
2022-10-17T01:27:19.222Z,101342.77
2022-10-17T01:30:05.694Z,101345.27
2022-10-17T01:32:41.578Z,101354.55
2022-10-17T01:35:21.526Z,101354.61
2022-10-17T01:38:02.829Z,101348.60
2022-10-17T01:40:40.576Z,101344.78
2022-10-17T01:43:20.702Z,101339.01
2022-10-17T01:46:02.626Z,101332.44
2022-10-17T01:48:38.909Z,101326.80
2022-10-17T01:51:17.290Z,101319.40
2022-10-17T01:53:54.298Z,101306.02
2022-10-17T01:56:29.383Z,101295.73
2022-10-17T01:59:05.542Z,101302.92
2022-10-17T02:01:39.162Z,101308.38
2022-10-17T02:04:12.631Z,101316.42
2022-10-17T02:06:44.220Z,101320.02
2022-10-17T02:09:26.373Z,101327.65
2022-10-17T02:12:21.765Z,101336.32
2022-10-17T02:15:09.202Z,101333.04
2022-10-17T02:17:54.061Z,101328.59
2022-10-17T02:20:32.443Z,101335.14
2022-10-17T02:23:13.414Z,101334.75
2022-10-17T02:25:54.662Z,101333.03
2022-10-17T02:28:35.802Z,101333.43
2022-10-17T02:31:15.549Z,101342.77
2022-10-17T02:33:56.517Z,101339.49
2022-10-17T02:36:33.398Z,101338.71
2022-10-17T02:39:07.654Z,101335.27
2022-10-17T02:41:41.502Z,101336.02
2022-10-17T02:44:13.579Z,101333.90
2022-10-17T02:46:53.246Z,101336.85
2022-10-17T02:49:28.718Z,101344.93
2022-10-17T02:52:07.938Z,101350.36
2022-10-17T02:54:44.398Z,101354.80
2022-10-17T02:57:23.120Z,101351.76
2022-10-17T02:59:56.005Z,101347.50
2022-10-17T03:02:28.734Z,101349.34
2022-10-17T03:05:01.298Z,101357.19
2022-10-17T03:07:33.060Z,101362.05
2022-10-17T03:10:07.224Z,101353.48
2022-10-17T03:12:39.582Z,101356.28
2022-10-17T03:15:15.003Z,101353.09
2022-10-17T03:17:47.243Z,101341.33
2022-10-17T03:20:19.970Z,101351.89
2022-10-17T03:22:51.960Z,101355.02
2022-10-17T03:25:24.128Z,101353.97
2022-10-17T03:27:56.535Z,101353.30
2022-10-17T03:30:29.328Z,101352.92
2022-10-17T03:33:01.926Z,101352.14
2022-10-17T03:35:33.734Z,101358.43
2022-10-17T03:38:05.628Z,101366.14
2022-10-17T03:40:37.417Z,101366.23
2022-10-17T03:43:11.350Z,101366.32
2022-10-17T03:45:44.468Z,101364.49
2022-10-17T03:48:16.065Z,101366.89
2022-10-17T03:50:47.708Z,101368.58
2022-10-17T03:53:19.479Z,101366.89
2022-10-17T03:55:52.005Z,101366.43
2022-10-17T03:58:23.656Z,101372.10
2022-10-17T04:00:56.191Z,101373.75
2022-10-17T04:03:27.817Z,101373.58
2022-10-17T04:06:02.861Z,101370.29
2022-10-17T04:08:36.858Z,101374.48
2022-10-17T04:11:18.655Z,101369.91
2022-10-17T04:13:55.900Z,101364.39
2022-10-17T04:16:28.112Z,101361.36
2022-10-17T04:19:08.481Z,101359.86
2022-10-17T04:21:44.070Z,101354.04
2022-10-17T04:24:16.379Z,101358.03
2022-10-17T04:27:23.338Z,101364.52
2022-10-17T04:29:55.075Z,101365.55
2022-10-17T04:32:29.274Z,101371.14
2022-10-17T04:35:12.157Z,101374.23
2022-10-17T04:37:46.139Z,101382.93
2022-10-17T04:40:22.845Z,101380.96
2022-10-17T04:42:56.051Z,101382.30
2022-10-17T04:45:33.220Z,101380.66
2022-10-17T04:48:07.422Z,101384.08
2022-10-17T04:50:39.455Z,101385.42
2022-10-17T04:53:32.191Z,101386.41
2022-10-17T04:56:09.063Z,101389.58
2022-10-17T04:58:41.812Z,101386.65
2022-10-17T05:01:16.468Z,101393.30
2022-10-17T05:03:49.827Z,101389.90
2022-10-17T05:06:23.769Z,101385.81
2022-10-17T05:09:21.622Z,101381.17
2022-10-17T05:11:53.600Z,101383.11
2022-10-17T05:14:25.302Z,101388.42
2022-10-17T05:16:57.418Z,101384.45
2022-10-17T05:19:29.268Z,101383.53
2022-10-17T05:22:00.853Z,101385.96
2022-10-17T05:24:32.088Z,101386.48
2022-10-17T05:27:04.135Z,101389.51
2022-10-17T05:29:36.810Z,101391.13
2022-10-17T05:32:15.754Z,101395.30
2022-10-17T05:34:48.072Z,101401.10
2022-10-17T05:37:20.729Z,101401.41
2022-10-17T05:39:55.258Z,101402.81
2022-10-17T05:42:27.276Z,101402.57
2022-10-17T05:44:59.493Z,101404.46
2022-10-17T05:47:31.748Z,101407.64
2022-10-17T05:50:03.665Z,101408.55
2022-10-17T05:52:46.388Z,101414.78
2022-10-17T05:55:20.545Z,101415.32
2022-10-17T05:57:52.666Z,101419.50
2022-10-17T06:00:25.060Z,101423.16
2022-10-17T06:03:01.264Z,101423.98
2022-10-17T06:05:33.104Z,101427.73
2022-10-17T06:08:04.803Z,101427.88
2022-10-17T06:10:39.605Z,101436.03
2022-10-17T06:13:11.888Z,101433.71
2022-10-17T06:15:43.756Z,101442.59
2022-10-17T06:18:15.421Z,101444.00
2022-10-17T06:20:47.339Z,101442.76
2022-10-17T06:23:21.132Z,101440.98
2022-10-17T06:26:13.528Z,101440.91
2022-10-17T06:28:45.608Z,101441.89
2022-10-17T06:31:18.659Z,101444.70
2022-10-17T06:33:50.572Z,101448.25
2022-10-17T06:36:22.870Z,101453.09
2022-10-17T06:38:55.620Z,101454.69
2022-10-17T06:41:37.369Z,101457.09
2022-10-17T06:44:13.162Z,101462.70
2022-10-17T06:47:01.569Z,101467.33
2022-10-17T06:49:34.251Z,101465.19
2022-10-17T06:52:23.279Z,101465.97
2022-10-17T06:55:18.089Z,101460.13
2022-10-17T06:58:10.042Z,101466.96
2022-10-17T07:01:13.751Z,101472.73
2022-10-17T07:03:48.713Z,101469.85
2022-10-17T07:06:24.766Z,101471.20
2022-10-17T07:08:57.071Z,101476.63
2022-10-17T07:11:29.182Z,101475.89
2022-10-17T07:14:00.872Z,101477.31
2022-10-17T07:16:33.161Z,101472.31
2022-10-17T07:19:11.334Z,101474.34
2022-10-17T07:21:44.298Z,101481.52
2022-10-17T07:24:15.770Z,101479.83
2022-10-17T07:26:52.043Z,101479.25
2022-10-17T07:29:24.433Z,101481.52
2022-10-17T07:32:25.525Z,101485.65
2022-10-17T07:34:57.718Z,101483.21
2022-10-17T07:37:30.393Z,101478.84
2022-10-17T07:40:04.245Z,101475.58
2022-10-17T07:42:40.655Z,101474.82
2022-10-17T07:45:13.180Z,101468.41
2022-10-17T07:47:43.757Z,101472.38
2022-10-17T07:50:18.523Z,101468.16
2022-10-17T07:52:50.775Z,101469.91
2022-10-17T07:55:22.759Z,101472.64
2022-10-17T07:57:54.413Z,101469.98
2022-10-17T08:00:26.345Z,101465.02
2022-10-17T08:02:58.234Z,101465.98
2022-10-17T08:05:30.286Z,101465.17
2022-10-17T08:08:02.276Z,101464.73
2022-10-17T08:10:34.277Z,101466.23
2022-10-17T08:13:06.387Z,101464.74
2022-10-17T08:15:40.205Z,101463.05
2022-10-17T08:18:13.821Z,101464.05
2022-10-17T08:20:45.911Z,101465.98
2022-10-17T08:23:17.990Z,101469.65
2022-10-17T08:25:50.015Z,101464.98
2022-10-17T08:28:22.188Z,101470.50
2022-10-17T08:30:54.434Z,101470.17
2022-10-17T08:33:26.446Z,101466.67
2022-10-17T08:35:59.185Z,101465.75
2022-10-17T08:38:35.385Z,101463.30
2022-10-17T08:41:14.619Z,101465.02
2022-10-17T08:43:59.938Z,101463.16
2022-10-17T08:46:36.696Z,101461.16
2022-10-17T08:49:17.638Z,101456.21
2022-10-17T08:51:54.112Z,101455.39
2022-10-17T08:54:33.133Z,101454.98
2022-10-17T08:57:05.211Z,101456.83
2022-10-17T08:59:37.598Z,101452.91
2022-10-17T09:02:34.378Z,101456.48
2022-10-17T09:05:32.691Z,101453.48
2022-10-17T09:08:13.939Z,101453.53
2022-10-17T09:10:57.161Z,101454.89
2022-10-17T09:13:41.913Z,101457.67
2022-10-17T09:16:45.571Z,101459.73
2022-10-17T09:19:22.523Z,101461.77
2022-10-17T09:21:58.630Z,101459.02
2022-10-17T09:24:40.141Z,101462.80
2022-10-17T09:27:24.329Z,101465.31
2022-10-17T09:30:04.683Z,101461.84
2022-10-17T09:32:41.046Z,101454.70
2022-10-17T09:35:16.541Z,101451.15
2022-10-17T09:37:49.533Z,101444.21
2022-10-17T09:40:26.293Z,101451.34
2022-10-17T09:42:58.605Z,101446.95
2022-10-17T09:45:37.603Z,101439.57
2022-10-17T09:48:20.266Z,101438.41
2022-10-17T09:51:02.624Z,101441.17
2022-10-17T09:53:50.557Z,101441.41
2022-10-17T09:56:22.662Z,101446.65
2022-10-17T09:58:58.116Z,101443.38
2022-10-17T10:01:32.149Z,101451.01
2022-10-17T10:04:15.162Z,101452.63
2022-10-17T10:07:04.412Z,101448.65
2022-10-17T10:09:39.646Z,101445.51
2022-10-17T10:12:21.221Z,101454.08
2022-10-17T10:14:54.782Z,101453.77
2022-10-17T10:17:41.756Z,101451.81
2022-10-17T10:20:33.501Z,101449.17
2022-10-17T10:23:13.784Z,101451.27
2022-10-17T10:26:00.544Z,101449.04
2022-10-17T10:28:35.385Z,101452.86
2022-10-17T10:31:09.754Z,101452.81
2022-10-17T10:33:49.471Z,101453.11
2022-10-17T10:36:23.156Z,101449.36
2022-10-17T10:38:56.220Z,101450.89
2022-10-17T10:41:28.570Z,101446.32
2022-10-17T10:44:00.380Z,101440.23
2022-10-17T10:46:32.137Z,101444.16
2022-10-17T10:49:04.581Z,101435.59
2022-10-17T10:51:36.431Z,101434.13
2022-10-17T10:54:17.466Z,101433.52
2022-10-17T10:56:53.515Z,101433.59
2022-10-17T10:59:31.634Z,101429.71
2022-10-17T11:02:13.733Z,101428.20
2022-10-17T11:04:51.222Z,101434.35
2022-10-17T11:07:29.469Z,101433.48
2022-10-17T11:10:12.163Z,101433.05
2022-10-17T11:12:47.569Z,101434.23
2022-10-17T11:15:26.411Z,101429.08
2022-10-17T11:18:03.293Z,101423.95
2022-10-17T11:20:42.910Z,101422.11
2022-10-17T11:23:21.744Z,101423.13
2022-10-17T11:25:55.644Z,101426.40
2022-10-17T11:28:27.657Z,101425.17
2022-10-17T11:31:07.239Z,101421.39
2022-10-17T11:33:46.683Z,101421.91
2022-10-17T11:36:23.149Z,101420.63
2022-10-17T11:38:58.001Z,101412.23
2022-10-17T11:41:36.251Z,101412.95
2022-10-17T11:44:16.685Z,101413.40
2022-10-17T11:46:53.545Z,101406.08
2022-10-17T11:49:29.713Z,101411.41
2022-10-17T11:52:37.434Z,101408.98
2022-10-17T11:55:18.391Z,101401.66
2022-10-17T11:58:08.753Z,101406.65
2022-10-17T12:00:51.223Z,101398.64
2022-10-17T12:03:46.782Z,101401.80
2022-10-17T12:06:29.677Z,101398.75
2022-10-17T12:09:08.645Z,101387.99
2022-10-17T12:11:53.917Z,101386.06
2022-10-17T12:14:41.320Z,101390.20
2022-10-17T12:17:39.293Z,101389.15
2022-10-17T12:20:39.854Z,101386.91
2022-10-17T12:23:30.816Z,101387.92
2022-10-17T12:26:05.681Z,101381.04
2022-10-17T12:28:44.752Z,101377.00
2022-10-17T12:31:33.432Z,101373.16
2022-10-17T12:34:06.722Z,101368.02
2022-10-17T12:36:40.340Z,101362.95
2022-10-17T12:39:49.366Z,101364.87
2022-10-17T12:42:46.634Z,101368.20
2022-10-17T12:45:49.685Z,101367.41
2022-10-17T12:48:37.176Z,101365.87
2022-10-17T12:54:10.070Z,101361.61
2022-10-17T12:56:44.386Z,101360.13
2022-10-17T12:59:21.684Z,101359.16
2022-10-17T13:01:57.362Z,101359.69
2022-10-17T13:04:30.752Z,101365.05
2022-10-17T13:07:02.688Z,101364.73
2022-10-17T13:09:37.808Z,101361.20
2022-10-17T13:12:15.599Z,101356.73
2022-10-17T13:14:51.533Z,101352.57
2022-10-17T13:17:29.681Z,101351.60
2022-10-17T13:20:02.070Z,101348.54
2022-10-17T13:22:33.597Z,101341.04
2022-10-17T13:25:17.932Z,101339.09
2022-10-17T13:27:50.646Z,101335.97
2022-10-17T13:30:32.110Z,101337.37
2022-10-17T13:33:17.196Z,101331.45
2022-10-17T13:36:05.916Z,101338.56
2022-10-17T13:38:41.713Z,101333.40
2022-10-17T13:41:38.214Z,101334.75
2022-10-17T13:44:16.896Z,101333.50
2022-10-17T13:46:49.253Z,101330.54
2022-10-17T13:49:26.085Z,101327.48
2022-10-17T13:52:02.437Z,101321.55
2022-10-17T13:54:41.359Z,101322.54
2022-10-17T13:57:24.832Z,101317.88
2022-10-17T13:59:59.436Z,101309.83
2022-10-17T14:02:33.860Z,101304.84
2022-10-17T14:05:17.112Z,101305.31
2022-10-17T14:08:13.056Z,101305.03
2022-10-17T14:10:47.170Z,101308.05
2022-10-17T14:13:23.877Z,101310.89
2022-10-17T14:15:59.029Z,101311.80
2022-10-17T14:18:36.581Z,101307.52
2022-10-17T14:24:28.340Z,101314.84
2022-10-17T14:27:01.431Z,101312.16
2022-10-17T14:29:51.954Z,101317.77
2022-10-17T14:32:25.073Z,101314.72
2022-10-17T14:35:17.883Z,101314.37
2022-10-17T14:37:52.969Z,101315.92
2022-10-17T14:40:27.407Z,101317.86
2022-10-17T14:43:02.100Z,101309.30
2022-10-17T14:45:36.176Z,101317.39
2022-10-17T14:48:15.524Z,101318.35
2022-10-17T14:51:11.854Z,101317.73
2022-10-17T14:53:45.153Z,101318.47
2022-10-17T14:56:26.688Z,101317.44
2022-10-17T14:58:59.012Z,101315.65
2022-10-17T15:01:31.269Z,101317.96
2022-10-17T15:04:02.893Z,101321.58
2022-10-17T15:06:35.935Z,101318.39
2022-10-17T15:09:08.436Z,101323.04
2022-10-17T15:11:39.149Z,101319.23
2022-10-17T15:14:10.849Z,101318.95
2022-10-17T15:16:42.625Z,101315.56
2022-10-17T15:19:15.012Z,101313.79
2022-10-17T15:21:47.441Z,101312.33
2022-10-17T15:24:19.422Z,101308.83
2022-10-17T15:26:51.420Z,101306.52
2022-10-17T15:29:23.578Z,101308.21
2022-10-17T15:31:55.220Z,101311.58
2022-10-17T15:34:26.959Z,101307.70
2022-10-17T15:36:58.791Z,101310.20
2022-10-17T15:39:30.354Z,101304.54
2022-10-17T15:42:01.938Z,101306.09
2022-10-17T15:44:33.662Z,101304.10
2022-10-17T15:47:05.590Z,101304.37
2022-10-17T15:49:36.367Z,101304.89
2022-10-17T15:52:09.701Z,101304.73
2022-10-17T15:54:41.448Z,101306.08
2022-10-17T15:57:17.348Z,101307.27
2022-10-17T15:59:50.400Z,101305.47
2022-10-17T16:02:24.244Z,101311.05
2022-10-17T16:04:56.130Z,101312.98
2022-10-17T16:07:28.208Z,101312.54
2022-10-17T16:10:00.159Z,101311.55
2022-10-17T16:12:36.959Z,101311.05
2022-10-17T16:15:14.070Z,101307.12
2022-10-17T16:17:45.854Z,101307.34
2022-10-17T16:20:17.580Z,101305.95
2022-10-17T16:22:50.469Z,101309.16
2022-10-17T16:25:24.186Z,101306.30
2022-10-17T16:27:57.584Z,101307.77
2022-10-17T16:30:31.705Z,101307.92
2022-10-17T16:33:03.616Z,101312.50
2022-10-17T16:35:37.918Z,101314.59
2022-10-17T16:38:10.248Z,101311.30
2022-10-17T16:40:42.188Z,101312.36
2022-10-17T16:43:15.084Z,101312.89
2022-10-17T16:45:46.705Z,101316.28
2022-10-17T16:48:18.359Z,101312.90
2022-10-17T16:50:49.991Z,101314.92
2022-10-17T16:53:21.630Z,101307.06
2022-10-17T16:56:03.211Z,101313.27
2022-10-17T16:58:34.981Z,101316.94
2022-10-17T17:01:09.601Z,101316.65
2022-10-17T17:03:42.918Z,101315.43
2022-10-17T17:06:18.993Z,101317.09
2022-10-17T17:08:51.569Z,101315.95
2022-10-17T17:11:25.090Z,101318.09
2022-10-17T17:14:01.715Z,101314.23
2022-10-17T17:16:35.843Z,101311.41
2022-10-17T17:19:11.148Z,101309.80
2022-10-17T17:21:47.717Z,101310.70
2022-10-17T17:24:21.859Z,101318.27
2022-10-17T17:26:56.173Z,101317.33
2022-10-17T17:29:28.014Z,101320.92
2022-10-17T17:31:59.730Z,101324.83
2022-10-17T17:34:32.344Z,101321.27
2022-10-17T17:37:02.583Z,101324.30
2022-10-17T17:39:34.521Z,101321.58
2022-10-17T17:42:06.284Z,101320.73
2022-10-17T17:44:38.100Z,101320.51
2022-10-17T17:47:09.981Z,101323.61
2022-10-17T17:49:41.839Z,101321.86
2022-10-17T17:52:13.871Z,101315.41
2022-10-17T17:54:46.921Z,101314.86
2022-10-17T17:57:19.017Z,101315.10
2022-10-17T17:59:52.327Z,101312.79
2022-10-17T18:02:24.379Z,101310.47
2022-10-17T18:04:57.248Z,101310.23
2022-10-17T18:07:30.645Z,101313.73
2022-10-17T18:10:06.507Z,101312.75
2022-10-17T18:12:39.743Z,101309.89
2022-10-17T18:15:12.548Z,101302.70
2022-10-17T18:17:42.782Z,101300.97
2022-10-17T18:20:15.003Z,101302.02
2022-10-17T18:22:46.812Z,101306.02
2022-10-17T18:25:19.012Z,101310.53
2022-10-17T18:27:52.366Z,101311.55
2022-10-17T18:30:27.209Z,101306.33
2022-10-17T18:33:01.005Z,101309.62
2022-10-17T18:35:35.378Z,101308.31
2022-10-17T18:38:09.453Z,101307.46
2022-10-17T18:40:41.159Z,101308.48
2022-10-17T18:43:12.849Z,101310.06
2022-10-17T18:45:44.573Z,101309.84
2022-10-17T18:48:16.212Z,101305.13
2022-10-17T18:50:47.932Z,101306.32
2022-10-17T18:53:19.719Z,101307.06
2022-10-17T18:55:53.539Z,101306.15
2022-10-17T18:58:25.711Z,101305.14
2022-10-17T19:01:02.248Z,101305.52
2022-10-17T19:03:34.595Z,101301.71
2022-10-17T19:06:08.637Z,101302.73
2022-10-17T19:08:41.919Z,101301.45
2022-10-17T19:11:16.190Z,101298.80
2022-10-17T19:13:48.542Z,101301.34
2022-10-17T19:16:23.686Z,101298.65
2022-10-17T19:18:58.493Z,101300.20
2022-10-17T19:21:30.652Z,101295.89
2022-10-17T19:24:05.136Z,101293.08
2022-10-17T19:26:39.879Z,101293.70
2022-10-17T19:29:13.517Z,101292.59
2022-10-17T19:31:45.830Z,101288.17
2022-10-17T19:34:18.638Z,101289.61
2022-10-17T19:36:51.362Z,101291.63
2022-10-17T19:39:25.137Z,101292.48
2022-10-17T19:41:57.132Z,101295.55
2022-10-17T19:44:29.175Z,101295.44
2022-10-17T19:47:01.064Z,101303.13
2022-10-17T19:49:33.374Z,101308.02
2022-10-17T19:52:05.998Z,101312.27
2022-10-17T19:54:38.967Z,101310.79
2022-10-17T19:57:12.324Z,101308.21
2022-10-17T19:59:48.557Z,101312.45
2022-10-17T20:02:23.381Z,101315.17
2022-10-17T20:05:13.818Z,101318.59
2022-10-17T20:07:48.843Z,101320.55
2022-10-17T20:10:20.931Z,101323.59
2022-10-17T20:12:53.131Z,101322.08
2022-10-17T20:15:25.501Z,101328.45
2022-10-17T20:17:58.097Z,101323.73
2022-10-17T20:20:32.676Z,101325.20
2022-10-17T20:23:05.234Z,101326.61
2022-10-17T20:25:38.909Z,101326.23
2022-10-17T20:28:11.832Z,101326.61
2022-10-17T20:30:48.097Z,101327.69
2022-10-17T20:33:20.830Z,101328.20
2022-10-17T20:35:52.876Z,101326.95
2022-10-17T20:38:25.250Z,101330.00
2022-10-17T20:41:00.703Z,101325.98
2022-10-17T20:43:32.933Z,101329.98
2022-10-17T20:46:22.758Z,101329.64
2022-10-17T20:48:58.438Z,101326.78
2022-10-17T20:51:31.204Z,101336.21
2022-10-17T20:54:04.169Z,101334.56
2022-10-17T20:56:37.218Z,101331.56
2022-10-17T20:59:12.299Z,101325.60
2022-10-17T21:01:45.058Z,101331.09
2022-10-17T21:07:09.875Z,101339.85
2022-10-17T21:09:42.478Z,101337.52
2022-10-17T21:12:21.624Z,101336.63
2022-10-17T21:15:03.671Z,101340.20
2022-10-17T21:17:35.280Z,101334.91
2022-10-17T21:20:08.628Z,101332.98
2022-10-17T21:22:40.360Z,101337.70
2022-10-17T21:25:12.659Z,101337.41
2022-10-17T21:27:44.290Z,101334.73
2022-10-17T21:30:15.894Z,101337.12
2022-10-17T21:32:51.477Z,101336.95
2022-10-17T21:35:23.650Z,101339.33
2022-10-17T21:37:55.443Z,101341.58
2022-10-17T21:40:27.133Z,101340.02
2022-10-17T21:42:58.814Z,101336.32
2022-10-17T21:45:30.642Z,101333.97
2022-10-17T21:48:12.694Z,101336.24
2022-10-17T21:50:44.903Z,101345.94
2022-10-17T21:53:16.582Z,101340.66
2022-10-17T21:55:48.207Z,101341.89
2022-10-17T21:58:20.350Z,101342.66
2022-10-17T22:00:51.921Z,101344.79
2022-10-17T22:03:23.626Z,101344.16
2022-10-17T22:06:11.759Z,101340.70
2022-10-17T22:08:48.525Z,101342.10
2022-10-17T22:11:23.094Z,101336.33
2022-10-17T22:13:58.498Z,101337.13
2022-10-17T22:16:30.570Z,101338.05
2022-10-17T22:19:06.261Z,101336.23
2022-10-17T22:21:39.364Z,101335.05
2022-10-17T22:24:14.225Z,101330.55
2022-10-17T22:26:47.659Z,101327.15
2022-10-17T22:29:19.563Z,101325.94
2022-10-17T22:31:51.281Z,101320.09
2022-10-17T22:34:22.956Z,101325.91
2022-10-17T22:36:54.872Z,101326.23
2022-10-17T22:39:27.088Z,101326.98
2022-10-17T22:41:58.820Z,101327.06
2022-10-17T22:44:30.666Z,101330.88
2022-10-17T22:47:02.346Z,101329.49
2022-10-17T22:49:34.781Z,101327.97
2022-10-17T22:52:06.675Z,101323.99
2022-10-17T22:54:38.270Z,101326.96
2022-10-17T22:57:09.946Z,101329.31
2022-10-17T22:59:41.641Z,101329.61
2022-10-17T23:02:13.263Z,101330.84
2022-10-17T23:04:44.886Z,101327.59
2022-10-17T23:07:16.981Z,101332.25
2022-10-17T23:09:48.630Z,101327.38
2022-10-17T23:12:20.673Z,101323.31
2022-10-17T23:14:53.855Z,101324.27
2022-10-17T23:17:25.663Z,101327.14
2022-10-17T23:19:57.791Z,101330.27
2022-10-17T23:22:29.974Z,101327.10
2022-10-17T23:25:05.205Z,101329.54
2022-10-17T23:27:37.809Z,101324.38
2022-10-17T23:30:09.155Z,101329.05
2022-10-17T23:32:41.292Z,101326.53
2022-10-17T23:35:12.992Z,101324.27
2022-10-17T23:37:44.590Z,101322.97
2022-10-17T23:40:16.547Z,101326.10
2022-10-17T23:42:48.263Z,101319.93
2022-10-17T23:45:20.825Z,101322.67
2022-10-17T23:47:52.515Z,101321.91
2022-10-17T23:50:24.406Z,101327.13
2022-10-17T23:52:55.949Z,101329.63
2022-10-17T23:55:27.550Z,101328.04
2022-10-17T23:57:59.273Z,101327.26
